Mombasa, Kenya

11:05 AM EAT on December 03, 2016 (GMT +0300)
Moi | | Change Station

Elev 180 ft 4.03 °S, 39.62 °E | Updated 1 hour ago

Mostly Cloudy
Mostly Cloudy
86 °F
Feels Like 93 °F
N
6
Wind Variable Wind from NE

Today
High -- | Low -- °F
--% Chance of Precip.
Yesterday
High -- | Low -- °F
Precip. -- in
Pressure 29.98 in
Visibility 6.2 miles
Clouds Scattered Clouds 2500 ft
Mostly Cloudy 9000 ft
Heat Index 93 °F
Dew Point 73 °F
Humidity 66%
Rainfall 0.00 in
Snow Depth Not available.
6:01 AM 6:21 PM
Waxing Crescent, 13% visible
METAR HKMO 030700Z 04005KT 9999 SCT025 BKN090 30/23 Q1015 NOSIG
Pressure 29.98 in
Visibility 6.2 miles
Clouds Scattered Clouds 2500 ft
Mostly Cloudy 9000 ft
Heat Index 93 °F
Dew Point 73 °F
Humidity 66%
Rainfall 0.00 in
Snow Depth Not available.
6:01 AM 6:21 PM
Waxing Crescent, 13% visible
METAR HKMO 030700Z 04005KT 9999 SCT025 BKN090 30/23 Q1015 NOSIG

10-Day Weather Forecast

No radar image for this location.
×

Almanac

Astronomy

Dec. 03, 2016 Rise Set
Actual Time
Civil Twilight
Nautical Twilight
Astronomical Twilight
Moon
Length of Visible Light
Length of Day
Tomorrow will be .
, % of the Moon is Illuminated

Today's Extremes

Country Highs Country Lows

Community

WunderPhotos

Upload Photos

1,955,432 photos uploaded!

WunderBlog® & News

Nearby

Air Quality

  Air Quality AQ Index Pollutant
Not available.

Snow Depth

Station Depth Elevation

Earthquake Activity

City Distance Mag. Time & Date
Minimum magnitude displayed is 2.5.

Coastal Water Temperatures

Place Temperature

Stations

Nearby Weather Stations

Station Location Temp. Windchill Dew Point Humidity Wind Precip. Elev Updated Type